CheckWX is a tool to help pilots better visualize weather data.  It is not intended as a substitute for an official pre-flight weather briefing.

10:21:23 UTC

KSNA TAF
John Wayne-Orange County Airport
Santa Ana, California, USA
KSNA 220520Z 2206/2306 VRB05KT P6SM BKN250 FM221300 VRB04KT P6SM FEW006 SCT250 FM221600 VRB04KT P6SM FEW010 FM222100 22008KT P6SM SKC

Sep-22@
06:00 UTC

Sep-22 @ 06:00 UTC

Sep-22@
13:00 UTC

Sep-22 @ 13:00 UTC

KSNA 220520Z 2206/2306 VRB05KT P6SM BKN250
Wind
  • Variable at 5 KTS
Cloud Levels
  • Broken at 25,000' AGL

Sep-22@
13:00 UTC

Sep-22 @ 13:00 UTC

Sep-22@
16:00 UTC

Sep-22 @ 16:00 UTC

FM221300 VRB04KT P6SM FEW006 SCT250

From

From Standard forecast or significant change

Wind
  • Variable at 4 KTS
Cloud Levels
  • Few at 600' AGL
  • Scattered at 25,000' AGL

Sep-22@
16:00 UTC

Sep-22 @ 16:00 UTC

Sep-22@
21:00 UTC

Sep-22 @ 21:00 UTC

FM221600 VRB04KT P6SM FEW010

From

From Standard forecast or significant change

Wind
  • Variable at 4 KTS
Cloud Levels
  • Few at 1,000' AGL

Sep-22@
21:00 UTC

Sep-22 @ 21:00 UTC

Sep-23@
06:00 UTC

Sep-23 @ 06:00 UTC

FM222100 22008KT P6SM SKC

From

From Standard forecast or significant change

Wind
  • 220° at 8 KTS
Cloud Levels
  • Clear skies